PT-0041 weather

Aerodromo da Lezíria
Vila Franca de Xira, Lisbon District, Portugal

Public forecast

Using degrees Celsius for public forecast. Weather courtesy of forecast.io.

Closest aviation weather report (METAR) to Aerodromo da Lezíria

Report is more than 6 hours old.

Closest report is Alverca Air Base, 4.5 nm (8.3 km) WSW. Retrieved 2020/04/07 12:00 UTC (18 hours ago):

LPAR 071200Z 22009KT 8000 FEW012 BKN040 19/16 Q1021

Closest aviation forecast (TAF) to Aerodromo da Lezíria

Forecast is more than 12 hours old.

Closest forecast is Alverca Air Base, 4.5 nm (8.3 km) WSW. Retrieved 2020/02/10 15:00 UTC (2 months ago):

TAF LPAR 101403Z 1015/1024 VRB02KT 9999 SCT015 BKN028 PROB40 1021/1024 2000 BR SCT004